NOZ416 ENGM-ENAL
Flight info
| Callsign | NOZ416 |
|---|---|
| Flight time | N/A |
| Altitude | 34000 |
| Route | ENGM/19R EVTOG DCT UTRUF DCT UFGUG DCT OBITI |
| Aircraft | B738/M-SDE2E3GHIJ1LRWXY/LB1 |
Departure
| Time | 2026-05-04 18:42 |
|---|---|
| Airport | Oslo-Gardermoen International Airport (ENGM) |
Arrival
| Time | N/A |
|---|---|
| Airport | Ålesund Airport (ENAL) |
| Time | Latitude | Longitude | Altitude | Speed | Heading |
|---|---|---|---|---|---|
| 2026-05-04 18:09 | 60.19521 | 11.10148 | 690 ft | 0 kts | 264° |
| 2026-05-04 18:28 | 60.19522 | 11.10173 | 683 ft | 4 kts | 264° |
| 2026-05-04 18:28 | 60.19524 | 11.10226 | 685 ft | 4 kts | 264° |
| 2026-05-04 18:28 | 60.19527 | 11.10280 | 683 ft | 3 kts | 264° |
| 2026-05-04 18:29 | 60.19530 | 11.10322 | 682 ft | 4 kts | 252° |
| 2026-05-04 18:29 | 60.19540 | 11.10371 | 690 ft | 4 kts | 241° |
| 2026-05-04 18:29 | 60.19544 | 11.10383 | 690 ft | 1 kts | 241° |
| 2026-05-04 18:32 | 60.19543 | 11.10380 | 690 ft | 3 kts | 244° |
| 2026-05-04 18:33 | 60.19560 | 11.10342 | 682 ft | 5 kts | 0° |
| 2026-05-04 18:33 | 60.19593 | 11.10388 | 688 ft | 7 kts | 40° |
| 2026-05-04 18:33 | 60.19640 | 11.10430 | 688 ft | 8 kts | 17° |
| 2026-05-04 18:33 | 60.19699 | 11.10483 | 690 ft | 10 kts | 22° |
| 2026-05-04 18:34 | 60.19781 | 11.10514 | 686 ft | 14 kts | 14° |
| 2026-05-04 18:34 | 60.19881 | 11.10535 | 689 ft | 15 kts | 330° |
| 2026-05-04 18:34 | 60.19922 | 11.10346 | 688 ft | 15 kts | 285° |
| 2026-05-04 18:34 | 60.19949 | 11.10146 | 690 ft | 16 kts | 287° |
| 2026-05-04 18:35 | 60.19981 | 11.09921 | 690 ft | 18 kts | 285° |
| 2026-05-04 18:35 | 60.20019 | 11.09668 | 688 ft | 20 kts | 285° |
| 2026-05-04 18:35 | 60.20054 | 11.09416 | 683 ft | 19 kts | 285° |
| 2026-05-04 18:35 | 60.20087 | 11.09184 | 679 ft | 17 kts | 286° |
| 2026-05-04 18:36 | 60.20118 | 11.08962 | 679 ft | 16 kts | 288° |
| 2026-05-04 18:36 | 60.20214 | 11.08923 | 682 ft | 16 kts | 15° |
| 2026-05-04 18:36 | 60.20317 | 11.08981 | 682 ft | 15 kts | 16° |
| 2026-05-04 18:36 | 60.20417 | 11.09040 | 681 ft | 16 kts | 17° |
| 2026-05-04 18:37 | 60.20518 | 11.09104 | 682 ft | 15 kts | 16° |
| 2026-05-04 18:37 | 60.20619 | 11.09162 | 681 ft | 16 kts | 14° |
| 2026-05-04 18:37 | 60.20722 | 11.09214 | 680 ft | 15 kts | 16° |
| 2026-05-04 18:37 | 60.20836 | 11.09280 | 681 ft | 20 kts | 15° |
| 2026-05-04 18:38 | 60.20966 | 11.09355 | 681 ft | 19 kts | 16° |
| 2026-05-04 18:38 | 60.21096 | 11.09432 | 684 ft | 19 kts | 16° |
| 2026-05-04 18:38 | 60.21222 | 11.09503 | 682 ft | 19 kts | 17° |
| 2026-05-04 18:38 | 60.21343 | 11.09573 | 681 ft | 18 kts | 15° |
| 2026-05-04 18:39 | 60.21454 | 11.09632 | 679 ft | 13 kts | 11° |
| 2026-05-04 18:39 | 60.21530 | 11.09568 | 684 ft | 12 kts | 305° |
| 2026-05-04 18:39 | 60.21554 | 11.09440 | 681 ft | 0 kts | 286° |
| 2026-05-04 18:39 | 60.21555 | 11.09435 | 683 ft | 0 kts | 286° |
| 2026-05-04 18:40 | 60.21555 | 11.09431 | 678 ft | 3 kts | 286° |
| 2026-05-04 18:41 | 60.21565 | 11.09363 | 680 ft | 6 kts | 284° |
| 2026-05-04 18:41 | 60.21566 | 11.09189 | 677 ft | 17 kts | 240° |
| 2026-05-04 18:41 | 60.21521 | 11.09121 | 681 ft | 0 kts | 198° |
| 2026-05-04 18:41 | 60.21415 | 11.09056 | 683 ft | 49 kts | 197° |
| 2026-05-04 18:42 | 60.20835 | 11.08719 | 683 ft | 122 kts | 196° |
| 2026-05-04 18:42 | 60.19823 | 11.08189 | 854 ft | 167 kts | 195° |
| 2026-05-04 18:42 | 60.18663 | 11.07701 | 1662 ft | 179 kts | 198° |
| 2026-05-04 18:42 | 60.17444 | 11.06955 | 2480 ft | 184 kts | 212° |
| 2026-05-04 18:43 | 60.16470 | 11.05287 | 2844 ft | 196 kts | 235° |
| 2026-05-04 18:43 | 60.15736 | 11.02821 | 3187 ft | 208 kts | 249° |
| 2026-05-04 18:43 | 60.15167 | 11.00160 | 3724 ft | 213 kts | 249° |
| 2026-05-04 18:43 | 60.14572 | 10.97415 | 4327 ft | 217 kts | 249° |
| 2026-05-04 18:44 | 60.14089 | 10.94416 | 4678 ft | 234 kts | 264° |
| 2026-05-04 18:44 | 60.14040 | 10.93313 | 4897 ft | 236 kts | 266° |
| 2026-05-04 18:44 | 60.13878 | 10.87765 | 6155 ft | 243 kts | 267° |
| 2026-05-04 18:44 | 60.13770 | 10.84368 | 6765 ft | 244 kts | 266° |
| 2026-05-04 18:45 | 60.13661 | 10.80942 | 6998 ft | 247 kts | 268° |
| 2026-05-04 18:45 | 60.13965 | 10.77587 | 7022 ft | 249 kts | 294° |
| 2026-05-04 18:45 | 60.15142 | 10.74972 | 7505 ft | 263 kts | 324° |
| 2026-05-04 18:45 | 60.16815 | 10.73433 | 8413 ft | 265 kts | 333° |
| 2026-05-04 18:46 | 60.18559 | 10.72143 | 9261 ft | 268 kts | 334° |
| 2026-05-04 18:46 | 60.20323 | 10.70930 | 10039 ft | 271 kts | 334° |
| 2026-05-04 18:46 | 60.22180 | 10.69687 | 10249 ft | 293 kts | 334° |
| 2026-05-04 18:46 | 60.24176 | 10.68330 | 10459 ft | 312 kts | 334° |
| 2026-05-04 18:47 | 60.26233 | 10.66833 | 11035 ft | 313 kts | 328° |
| 2026-05-04 18:47 | 60.28098 | 10.64697 | 11875 ft | 305 kts | 320° |
| 2026-05-04 18:47 | 60.29865 | 10.62316 | 12611 ft | 308 kts | 318° |
| 2026-05-04 18:47 | 60.31640 | 10.59862 | 13448 ft | 310 kts | 318° |
| 2026-05-04 18:48 | 60.33427 | 10.57411 | 14195 ft | 314 kts | 318° |
| 2026-05-04 18:48 | 60.35265 | 10.54924 | 14752 ft | 321 kts | 319° |
| 2026-05-04 18:48 | 60.37132 | 10.52436 | 15522 ft | 322 kts | 318° |
| 2026-05-04 18:48 | 60.39008 | 10.49965 | 16340 ft | 322 kts | 317° |
| 2026-05-04 18:49 | 60.40892 | 10.47495 | 17115 ft | 323 kts | 317° |
| 2026-05-04 18:49 | 60.42786 | 10.45019 | 17896 ft | 325 kts | 316° |
| 2026-05-04 18:49 | 60.44683 | 10.42540 | 18566 ft | 325 kts | 316° |
| 2026-05-04 18:49 | 60.46590 | 10.40049 | 19221 ft | 327 kts | 316° |
| 2026-05-04 18:50 | 60.48516 | 10.37527 | 19687 ft | 332 kts | 316° |
| 2026-05-04 18:50 | 60.50456 | 10.34987 | 20313 ft | 334 kts | 316° |
| 2026-05-04 18:50 | 60.51750 | 10.33291 | 20679 ft | 337 kts | 316° |
| 2026-05-04 18:50 | 60.53746 | 10.30665 | 21041 ft | 345 kts | 316° |
| 2026-05-04 18:51 | 60.55790 | 10.27973 | 21385 ft | 353 kts | 316° |
| 2026-05-04 18:51 | 60.57858 | 10.25255 | 21872 ft | 354 kts | 316° |
| 2026-05-04 18:51 | 60.59935 | 10.22527 | 22430 ft | 356 kts | 316° |
| 2026-05-04 18:51 | 60.62010 | 10.19801 | 23149 ft | 354 kts | 316° |
| 2026-05-04 18:52 | 60.64088 | 10.17057 | 23455 ft | 360 kts | 316° |
| 2026-05-04 18:52 | 60.66203 | 10.14253 | 23825 ft | 365 kts | 316° |
| 2026-05-04 18:52 | 60.68342 | 10.11416 | 24181 ft | 369 kts | 316° |
| 2026-05-04 18:52 | 60.70503 | 10.08549 | 24641 ft | 368 kts | 316° |